createdAt,value
2023-04-09T00:00:25.752Z,100.00
2023-04-09T00:03:34.567Z,100.00
2023-04-09T00:06:36.295Z,100.00
2023-04-09T00:09:37.858Z,100.00
2023-04-09T00:12:39.553Z,100.00
2023-04-09T00:15:41.189Z,100.00
2023-04-09T00:18:42.780Z,100.00
2023-04-09T00:21:44.383Z,100.00
2023-04-09T00:24:46.168Z,100.00
2023-04-09T00:27:50.483Z,100.00
2023-04-09T00:30:52.150Z,100.00
2023-04-09T00:33:53.681Z,100.00
2023-04-09T00:36:55.353Z,100.00
2023-04-09T00:39:56.848Z,100.00
2023-04-09T00:42:58.418Z,100.00
2023-04-09T00:46:00.944Z,100.00
2023-04-09T00:49:03.165Z,100.00
2023-04-09T00:52:04.872Z,100.00
2023-04-09T00:55:06.803Z,100.00
2023-04-09T00:58:08.407Z,100.00
2023-04-09T01:01:10.006Z,100.00
2023-04-09T01:04:11.558Z,100.00
2023-04-09T01:07:35.841Z,100.00
2023-04-09T01:10:40.445Z,100.00
2023-04-09T01:13:49.375Z,100.00
2023-04-09T01:16:53.594Z,100.00
2023-04-09T01:20:06.720Z,100.00
2023-04-09T01:23:11.227Z,100.00
2023-04-09T01:26:50.467Z,100.00
2023-04-09T01:29:52.045Z,100.00
2023-04-09T01:32:53.666Z,100.00
2023-04-09T01:35:55.385Z,100.00
2023-04-09T01:38:57.116Z,100.00
2023-04-09T01:41:58.808Z,100.00
2023-04-09T01:45:00.501Z,100.00
2023-04-09T01:48:02.104Z,100.00
2023-04-09T01:51:03.914Z,100.00
2023-04-09T01:54:05.741Z,100.00
2023-04-09T01:57:07.268Z,100.00
2023-04-09T02:00:09.485Z,100.00
2023-04-09T02:03:17.157Z,100.00
2023-04-09T02:06:31.160Z,100.00
2023-04-09T02:09:33.273Z,100.00
2023-04-09T02:12:36.511Z,100.00
2023-04-09T02:15:38.042Z,100.00
2023-04-09T02:18:39.648Z,100.00
2023-04-09T02:21:41.214Z,100.00
2023-04-09T02:24:42.732Z,100.00
2023-04-09T02:27:44.258Z,100.00
2023-04-09T02:30:45.881Z,100.00
2023-04-09T02:33:47.540Z,100.00
2023-04-09T02:36:49.099Z,100.00
2023-04-09T02:39:50.700Z,100.00
2023-04-09T02:42:52.818Z,100.00
2023-04-09T02:45:54.549Z,100.00
2023-04-09T02:48:56.192Z,100.00
2023-04-09T02:51:57.719Z,100.00
2023-04-09T02:54:59.298Z,100.00
2023-04-09T02:58:01.079Z,100.00
2023-04-09T03:01:02.680Z,100.00
2023-04-09T03:04:04.343Z,100.00
2023-04-09T03:07:06.001Z,100.00
2023-04-09T03:10:07.881Z,100.00
2023-04-09T03:13:09.497Z,100.00
2023-04-09T03:16:11.177Z,100.00
2023-04-09T03:19:12.758Z,100.00
2023-04-09T03:22:14.379Z,100.00
2023-04-09T03:25:16.122Z,100.00
2023-04-09T03:28:17.746Z,100.00
2023-04-09T03:31:19.425Z,100.00
2023-04-09T03:34:21.016Z,100.00
2023-04-09T03:37:22.678Z,100.00
2023-04-09T03:40:24.349Z,100.00
2023-04-09T03:43:25.871Z,100.00
2023-04-09T03:46:27.465Z,100.00
2023-04-09T03:49:28.964Z,100.00
2023-04-09T03:52:30.509Z,100.00
2023-04-09T03:55:32.020Z,100.00
2023-04-09T03:58:33.753Z,100.00
2023-04-09T04:01:35.388Z,100.00
2023-04-09T04:04:37.039Z,100.00
2023-04-09T04:07:38.636Z,100.00
2023-04-09T04:10:40.287Z,100.00
2023-04-09T04:13:41.810Z,100.00
2023-04-09T04:16:43.436Z,100.00
2023-04-09T04:19:45.233Z,100.00
2023-04-09T04:22:46.787Z,100.00
2023-04-09T04:25:48.301Z,100.00
2023-04-09T04:28:49.920Z,100.00
2023-04-09T04:31:51.647Z,100.00
2023-04-09T04:34:53.355Z,100.00
2023-04-09T04:37:57.602Z,100.00
2023-04-09T04:40:59.376Z,100.00
2023-04-09T04:44:00.953Z,100.00
2023-04-09T04:47:02.470Z,100.00
2023-04-09T04:50:04.325Z,100.00
2023-04-09T04:53:06.069Z,100.00
2023-04-09T04:56:07.865Z,100.00
2023-04-09T04:59:09.416Z,100.00
2023-04-09T05:02:11.081Z,100.00
2023-04-09T05:05:12.675Z,100.00
2023-04-09T05:08:14.438Z,100.00
2023-04-09T05:11:16.959Z,100.00
2023-04-09T05:14:18.946Z,100.00
2023-04-09T05:17:20.586Z,100.00
2023-04-09T05:20:22.216Z,100.00
2023-04-09T05:23:23.827Z,100.00
2023-04-09T05:26:25.441Z,100.00
2023-04-09T05:29:27.012Z,100.00
2023-04-09T05:32:28.524Z,100.00
2023-04-09T05:35:30.116Z,100.00
2023-04-09T05:38:31.706Z,100.00
2023-04-09T05:41:33.666Z,100.00
2023-04-09T05:44:35.562Z,100.00
2023-04-09T05:47:37.143Z,100.00
2023-04-09T05:50:53.373Z,100.00
2023-04-09T05:53:55.862Z,100.00
2023-04-09T05:56:57.386Z,100.00
2023-04-09T05:59:59.005Z,100.00
2023-04-09T06:03:00.648Z,100.00
2023-04-09T06:06:02.253Z,100.00
2023-04-09T06:09:04.534Z,100.00
2023-04-09T06:12:06.069Z,100.00
2023-04-09T06:15:07.735Z,100.00
2023-04-09T06:18:09.368Z,100.00
2023-04-09T06:21:10.980Z,100.00
2023-04-09T06:24:12.772Z,100.00
2023-04-09T06:27:14.328Z,100.00
2023-04-09T06:30:15.914Z,100.00
2023-04-09T06:33:17.492Z,100.00
2023-04-09T06:36:20.168Z,100.00
2023-04-09T06:39:21.593Z,100.00
2023-04-09T06:42:23.117Z,100.00
2023-04-09T06:45:24.745Z,100.00
2023-04-09T06:48:26.320Z,100.00
2023-04-09T06:51:27.914Z,100.00
2023-04-09T06:54:29.526Z,100.00
2023-04-09T06:57:31.179Z,100.00
2023-04-09T07:00:32.741Z,100.00
2023-04-09T07:03:34.577Z,100.00
2023-04-09T07:06:36.285Z,100.00
2023-04-09T07:09:37.802Z,100.00
2023-04-09T07:12:39.372Z,100.00
2023-04-09T07:15:42.496Z,100.00
2023-04-09T07:18:44.489Z,100.00
2023-04-09T07:21:46.010Z,100.00
2023-04-09T07:24:53.423Z,100.00
2023-04-09T07:27:54.940Z,100.00
2023-04-09T07:30:56.552Z,100.00
2023-04-09T07:33:58.194Z,100.00
2023-04-09T07:36:59.809Z,100.00
2023-04-09T07:40:01.680Z,100.00
2023-04-09T07:43:03.878Z,100.00
2023-04-09T07:46:06.981Z,100.00
2023-04-09T07:49:08.569Z,100.00
2023-04-09T07:52:10.133Z,100.00
2023-04-09T07:55:11.673Z,100.00
2023-04-09T07:58:13.224Z,100.00
2023-04-09T08:01:15.308Z,100.00
2023-04-09T08:04:17.300Z,100.00
2023-04-09T08:07:18.938Z,100.00
2023-04-09T08:10:20.604Z,100.00
2023-04-09T08:13:24.300Z,100.00
2023-04-09T08:16:25.947Z,100.00
2023-04-09T08:19:27.514Z,100.00
2023-04-09T08:22:29.120Z,100.00
2023-04-09T08:25:30.962Z,100.00
2023-04-09T08:28:32.660Z,100.00
2023-04-09T08:31:34.503Z,100.00
2023-04-09T08:34:36.120Z,100.00
2023-04-09T08:37:37.724Z,100.00
2023-04-09T08:40:39.416Z,98.52
2023-04-09T08:43:53.109Z,95.31
2023-04-09T08:46:59.772Z,96.04
2023-04-09T08:50:01.357Z,92.28
2023-04-09T08:53:03.777Z,91.06
2023-04-09T08:56:05.815Z,92.57
2023-04-09T08:59:07.386Z,85.19
2023-04-09T09:02:10.759Z,81.57
2023-04-09T09:05:13.579Z,76.48
2023-04-09T09:08:23.691Z,73.91
2023-04-09T09:11:29.040Z,68.96
2023-04-09T09:14:31.844Z,63.03
2023-04-09T09:17:34.397Z,62.04
2023-04-09T09:20:35.987Z,48.92
2023-04-09T09:23:38.387Z,47.23
2023-04-09T09:26:39.983Z,45.85
2023-04-09T09:29:45.170Z,46.91
2023-04-09T09:32:46.835Z,47.82
2023-04-09T09:35:54.122Z,49.16
2023-04-09T09:38:57.325Z,50.20
2023-04-09T09:42:07.518Z,46.06
2023-04-09T09:45:19.371Z,47.56
2023-04-09T09:48:21.986Z,52.00
2023-04-09T09:51:27.250Z,55.98
2023-04-09T09:54:29.424Z,58.95
2023-04-09T09:57:33.829Z,59.74
2023-04-09T10:00:35.722Z,56.84
2023-04-09T10:03:40.533Z,58.34
2023-04-09T10:06:45.218Z,59.42
2023-04-09T10:09:49.835Z,63.89
2023-04-09T10:12:51.555Z,62.88
2023-04-09T10:15:53.434Z,60.49
2023-04-09T10:19:00.480Z,59.06
2023-04-09T10:22:12.249Z,57.42
2023-04-09T10:25:13.898Z,58.42
2023-04-09T10:28:18.603Z,58.85
2023-04-09T10:31:20.295Z,58.52
2023-04-09T10:34:23.597Z,59.64
2023-04-09T10:37:26.161Z,60.34
2023-04-09T10:40:28.929Z,58.24
2023-04-09T10:43:30.637Z,59.84
2023-04-09T10:46:36.550Z,60.35
2023-04-09T10:49:39.309Z,60.41
2023-04-09T10:52:41.772Z,60.07
2023-04-09T10:55:44.526Z,53.77
2023-04-09T10:58:46.170Z,61.11
2023-04-09T11:01:54.789Z,57.67
2023-04-09T11:05:20.227Z,61.48
2023-04-09T11:08:22.324Z,60.83
2023-04-09T11:11:26.876Z,65.08
2023-04-09T11:14:28.408Z,63.23
2023-04-09T11:17:30.235Z,63.97
2023-04-09T11:20:31.970Z,61.42
2023-04-09T11:23:33.880Z,58.63
2023-04-09T11:26:36.184Z,56.72
2023-04-09T11:29:39.204Z,59.74
2023-04-09T11:32:41.019Z,56.15
2023-04-09T11:35:42.858Z,55.50
2023-04-09T11:38:44.436Z,56.51
2023-04-09T11:41:47.073Z,59.10
2023-04-09T11:44:49.888Z,60.97
2023-04-09T11:47:51.670Z,59.82
2023-04-09T11:50:53.756Z,64.56
2023-04-09T11:53:55.359Z,66.53
2023-04-09T11:56:59.235Z,67.26
2023-04-09T12:00:31.092Z,65.14
2023-04-09T12:03:33.681Z,64.59
2023-04-09T12:06:40.316Z,67.72
2023-04-09T12:09:51.195Z,65.46
2023-04-09T12:12:52.852Z,65.46
2023-04-09T12:15:57.505Z,62.47
2023-04-09T12:19:04.393Z,63.54
2023-04-09T12:22:06.344Z,64.31
2023-04-09T12:25:20.285Z,63.58
2023-04-09T12:28:21.803Z,62.64
2023-04-09T12:31:23.476Z,59.86
2023-04-09T12:34:27.303Z,58.43
2023-04-09T12:37:28.970Z,63.00
2023-04-09T12:40:30.540Z,63.21
2023-04-09T12:43:32.126Z,60.39
2023-04-09T12:46:33.854Z,61.22
2023-04-09T12:49:35.518Z,62.19
2023-04-09T12:52:40.196Z,56.37
2023-04-09T12:55:43.010Z,56.47
2023-04-09T12:58:52.725Z,57.99
2023-04-09T13:01:57.331Z,58.89
2023-04-09T13:04:59.010Z,57.42
2023-04-09T13:08:00.563Z,57.74
2023-04-09T13:11:02.094Z,59.86
2023-04-09T13:14:03.756Z,59.03
2023-04-09T13:17:05.732Z,57.18
2023-04-09T13:20:08.267Z,53.88
2023-04-09T13:23:09.956Z,53.14
2023-04-09T13:26:11.668Z,50.33
2023-04-09T13:29:13.350Z,49.14
2023-04-09T13:32:14.932Z,52.17
2023-04-09T13:35:16.582Z,54.23
2023-04-09T13:38:18.506Z,55.46
2023-04-09T13:41:20.195Z,58.21
2023-04-09T13:44:22.167Z,56.75
2023-04-09T13:47:24.066Z,53.44
2023-04-09T13:50:26.508Z,55.45
2023-04-09T13:53:28.122Z,57.06
2023-04-09T13:56:30.867Z,58.02
2023-04-09T13:59:32.579Z,53.56
2023-04-09T14:02:34.377Z,54.33
2023-04-09T14:05:36.153Z,49.26
2023-04-09T14:08:37.696Z,47.69
2023-04-09T14:11:39.311Z,45.60
2023-04-09T14:14:43.289Z,44.98
2023-04-09T14:17:45.174Z,44.44
2023-04-09T14:20:46.958Z,43.21
2023-04-09T14:23:48.658Z,42.45
2023-04-09T14:26:53.670Z,42.08
2023-04-09T14:29:55.657Z,43.94
2023-04-09T14:33:00.123Z,43.14
2023-04-09T14:36:01.762Z,43.13
2023-04-09T14:39:03.398Z,43.65
2023-04-09T14:42:04.996Z,45.35
2023-04-09T14:45:07.171Z,46.39
2023-04-09T14:48:08.764Z,49.14
2023-04-09T14:51:10.938Z,51.00
2023-04-09T14:54:12.567Z,48.72
2023-04-09T14:57:14.149Z,50.42
2023-04-09T15:00:15.927Z,51.72
2023-04-09T15:03:17.904Z,50.34
2023-04-09T15:06:19.921Z,49.79
2023-04-09T15:09:21.545Z,50.07
2023-04-09T15:12:23.026Z,50.71
2023-04-09T15:15:24.700Z,50.37
2023-04-09T15:18:26.384Z,49.83
2023-04-09T15:21:29.656Z,49.37
2023-04-09T15:24:31.428Z,50.11
2023-04-09T15:27:33.094Z,50.34
2023-04-09T15:30:35.942Z,49.45
2023-04-09T15:33:42.400Z,49.06
2023-04-09T15:36:45.530Z,48.35
2023-04-09T15:39:47.214Z,49.06
2023-04-09T15:42:48.818Z,49.73
2023-04-09T15:45:51.039Z,49.04
2023-04-09T15:48:53.025Z,49.54
2023-04-09T15:51:54.641Z,50.37
2023-04-09T15:54:56.517Z,49.70
2023-04-09T15:57:58.036Z,49.97
2023-04-09T16:01:06.674Z,49.54
2023-04-09T16:04:09.416Z,49.74
2023-04-09T16:07:11.182Z,48.73
2023-04-09T16:10:14.679Z,49.05
2023-04-09T16:13:16.682Z,49.17
2023-04-09T16:16:18.730Z,48.10
2023-04-09T16:19:21.297Z,49.77
2023-04-09T16:22:22.853Z,50.00
2023-04-09T16:25:24.568Z,49.38
2023-04-09T16:28:27.041Z,49.67
2023-04-09T16:31:28.612Z,50.45
2023-04-09T16:34:31.952Z,49.83
2023-04-09T16:37:35.057Z,50.14
2023-04-09T16:40:36.624Z,50.04
2023-04-09T16:43:38.205Z,50.92
2023-04-09T16:46:39.853Z,50.20
2023-04-09T16:49:41.452Z,52.07
2023-04-09T16:52:44.101Z,51.25
2023-04-09T16:55:45.756Z,51.16
2023-04-09T16:58:47.904Z,51.38
2023-04-09T17:01:49.391Z,52.02
2023-04-09T17:04:51.615Z,51.66
2023-04-09T17:07:53.641Z,53.57
2023-04-09T17:11:01.934Z,53.04
2023-04-09T17:14:04.194Z,52.99
2023-04-09T17:17:05.575Z,52.96
2023-04-09T17:20:07.643Z,53.33
2023-04-09T17:23:09.157Z,53.27
2023-04-09T17:26:10.985Z,54.08
2023-04-09T17:29:13.191Z,57.07
2023-04-09T17:32:14.601Z,60.87
2023-04-09T17:35:21.254Z,62.82
2023-04-09T17:38:25.096Z,61.74
2023-04-09T17:41:27.778Z,66.95
2023-04-09T17:44:31.360Z,67.63
2023-04-09T17:47:33.182Z,71.28
2023-04-09T17:50:37.532Z,81.99
2023-04-09T17:53:39.155Z,88.66
2023-04-09T17:56:40.865Z,95.09
2023-04-09T17:59:42.480Z,100.00
2023-04-09T18:02:52.902Z,100.00
2023-04-09T18:05:54.854Z,100.00
2023-04-09T18:08:56.494Z,100.00
2023-04-09T18:12:00.043Z,100.00
2023-04-09T18:15:04.432Z,100.00
2023-04-09T18:18:06.071Z,100.00
2023-04-09T18:21:08.132Z,100.00
2023-04-09T18:24:09.705Z,100.00
2023-04-09T18:27:11.264Z,100.00
2023-04-09T18:30:13.004Z,100.00
2023-04-09T18:33:14.684Z,100.00
2023-04-09T18:36:16.405Z,100.00
2023-04-09T18:39:21.060Z,100.00
2023-04-09T18:42:22.635Z,100.00
2023-04-09T18:45:24.270Z,100.00
2023-04-09T18:48:25.993Z,100.00
2023-04-09T18:51:27.904Z,100.00
2023-04-09T18:54:29.440Z,100.00
2023-04-09T18:57:37.096Z,100.00
2023-04-09T19:00:39.752Z,100.00
2023-04-09T19:03:43.109Z,100.00
2023-04-09T19:06:47.461Z,100.00
2023-04-09T19:09:48.968Z,100.00
2023-04-09T19:12:53.784Z,100.00
2023-04-09T19:15:57.049Z,100.00
2023-04-09T19:19:01.197Z,100.00
2023-04-09T19:22:02.874Z,100.00
2023-04-09T19:25:04.909Z,100.00
2023-04-09T19:28:06.446Z,100.00
2023-04-09T19:31:08.100Z,100.00
2023-04-09T19:34:11.159Z,100.00
2023-04-09T19:37:15.075Z,100.00
2023-04-09T19:40:17.993Z,100.00
2023-04-09T19:43:19.520Z,100.00
2023-04-09T19:46:21.207Z,100.00
2023-04-09T19:49:22.841Z,100.00
2023-04-09T19:52:24.899Z,100.00
2023-04-09T19:55:29.311Z,100.00
2023-04-09T19:58:32.701Z,100.00
2023-04-09T20:01:34.420Z,100.00
2023-04-09T20:04:36.197Z,100.00
2023-04-09T20:07:38.495Z,100.00
2023-04-09T20:10:41.661Z,100.00
2023-04-09T20:13:43.289Z,100.00
2023-04-09T20:16:44.885Z,100.00
2023-04-09T20:19:46.627Z,100.00
2023-04-09T20:22:55.709Z,100.00
2023-04-09T20:25:58.084Z,100.00
2023-04-09T20:28:59.600Z,100.00
2023-04-09T20:32:01.339Z,100.00
2023-04-09T20:35:05.067Z,100.00
2023-04-09T20:38:09.377Z,100.00
2023-04-09T20:41:11.344Z,100.00
2023-04-09T20:44:13.045Z,100.00
2023-04-09T20:47:15.564Z,100.00
2023-04-09T20:50:17.460Z,100.00
2023-04-09T20:53:19.167Z,100.00
2023-04-09T20:56:20.734Z,100.00
2023-04-09T20:59:23.792Z,100.00
2023-04-09T21:02:25.654Z,100.00
2023-04-09T21:05:28.779Z,100.00
2023-04-09T21:08:30.610Z,100.00
2023-04-09T21:11:32.147Z,100.00
2023-04-09T21:14:36.690Z,100.00
2023-04-09T21:17:38.296Z,100.00
2023-04-09T21:20:46.186Z,100.00
2023-04-09T21:23:47.793Z,100.00
2023-04-09T21:26:51.982Z,100.00
2023-04-09T21:29:54.575Z,100.00
2023-04-09T21:32:56.455Z,100.00
2023-04-09T21:35:58.106Z,100.00
2023-04-09T21:38:59.744Z,100.00
2023-04-09T21:42:02.754Z,100.00
2023-04-09T21:45:04.727Z,100.00
2023-04-09T21:48:09.267Z,100.00
2023-04-09T21:51:11.458Z,100.00
2023-04-09T21:54:12.995Z,100.00
2023-04-09T21:57:14.811Z,100.00
2023-04-09T22:00:16.488Z,100.00
2023-04-09T22:03:18.265Z,100.00
2023-04-09T22:06:23.119Z,100.00
2023-04-09T22:09:24.776Z,100.00
2023-04-09T22:12:26.617Z,100.00
2023-04-09T22:15:28.284Z,100.00
2023-04-09T22:18:38.855Z,100.00
2023-04-09T22:21:41.391Z,100.00
2023-04-09T22:24:45.583Z,100.00
2023-04-09T22:27:53.563Z,100.00
2023-04-09T22:30:58.534Z,100.00
2023-04-09T22:34:10.074Z,100.00
2023-04-09T22:37:19.155Z,100.00
2023-04-09T22:40:20.758Z,100.00
2023-04-09T22:43:25.453Z,100.00
2023-04-09T22:46:27.021Z,100.00
2023-04-09T22:49:31.582Z,100.00
2023-04-09T22:52:33.258Z,100.00
2023-04-09T22:55:34.829Z,100.00
2023-04-09T22:58:36.547Z,100.00
2023-04-09T23:01:38.207Z,100.00
2023-04-09T23:04:39.848Z,100.00
2023-04-09T23:07:42.689Z,100.00
2023-04-09T23:10:44.291Z,100.00
2023-04-09T23:13:45.896Z,100.00
2023-04-09T23:16:47.405Z,100.00
2023-04-09T23:19:49.110Z,100.00
2023-04-09T23:22:50.887Z,100.00
2023-04-09T23:25:52.596Z,100.00
2023-04-09T23:28:54.349Z,100.00
2023-04-09T23:31:56.106Z,100.00
2023-04-09T23:34:58.964Z,100.00
2023-04-09T23:38:00.865Z,100.00
2023-04-09T23:41:02.416Z,100.00
2023-04-09T23:44:04.097Z,100.00
2023-04-09T23:47:06.580Z,100.00
2023-04-09T23:50:08.682Z,100.00
2023-04-09T23:53:10.963Z,100.00
2023-04-09T23:56:14.138Z,100.00
2023-04-09T23:59:15.793Z,100.00
